createdAt,value
2018-04-24T00:09:08.549Z,7
2018-04-24T00:19:07.888Z,7
2018-04-24T00:29:08.469Z,6
2018-04-24T00:39:07.986Z,6
2018-04-24T00:49:07.912Z,6
2018-04-24T00:59:07.970Z,7
2018-04-24T01:09:08.002Z,7
2018-04-24T01:19:27.367Z,7
2018-04-24T01:29:25.022Z,7
2018-04-24T01:39:07.875Z,7
2018-04-24T01:49:07.999Z,6
2018-04-24T01:59:10.005Z,5
2018-04-24T02:09:07.926Z,7
2018-04-24T02:19:08.254Z,7
2018-04-24T02:29:08.033Z,8
2018-04-24T02:39:08.000Z,9
2018-04-24T02:49:08.042Z,6
2018-04-24T02:59:08.018Z,5
2018-04-24T03:09:08.106Z,5
2018-04-24T03:19:08.035Z,4
2018-04-24T03:29:08.106Z,3
2018-04-24T03:39:08.118Z,3
2018-04-24T03:49:08.105Z,3
2018-04-24T03:59:08.040Z,3
2018-04-24T04:09:08.140Z,3
2018-04-24T04:19:08.117Z,4
2018-04-24T04:29:08.172Z,3
2018-04-24T04:39:08.072Z,3
2018-04-24T04:49:08.241Z,5
2018-04-24T04:59:08.166Z,3
2018-04-24T05:09:08.114Z,4
2018-04-24T05:19:08.114Z,4
2018-04-24T05:29:08.247Z,3
2018-04-24T05:39:08.226Z,4
2018-04-24T05:49:08.169Z,3
2018-04-24T05:59:08.258Z,3
2018-04-24T06:09:08.228Z,4
2018-04-24T06:19:08.272Z,3
2018-04-24T06:29:08.291Z,4
2018-04-24T06:39:08.417Z,4
2018-04-24T06:49:09.079Z,4
2018-04-24T06:59:08.293Z,4
2018-04-24T07:09:08.325Z,4
2018-04-24T07:19:08.333Z,4
2018-04-24T07:29:09.663Z,4
2018-04-24T07:39:09.870Z,4
2018-04-24T07:49:09.616Z,4
2018-04-24T07:59:08.432Z,5
2018-04-24T08:09:08.441Z,5
2018-04-24T08:19:08.638Z,5
2018-04-24T08:29:08.332Z,5
2018-04-24T08:39:09.436Z,6
2018-04-24T08:49:08.972Z,6
2018-04-24T08:59:08.638Z,7
2018-04-24T09:09:08.459Z,6
2018-04-24T09:19:08.814Z,7
2018-04-24T09:29:08.425Z,7
2018-04-24T09:39:08.537Z,6
2018-04-24T09:49:08.418Z,7
2018-04-24T09:59:08.400Z,7
2018-04-24T10:09:09.489Z,7
2018-04-24T10:19:08.476Z,9
2018-04-24T10:29:08.426Z,7
2018-04-24T10:39:08.576Z,7
2018-04-24T10:49:08.513Z,7
2018-04-24T10:59:08.566Z,9
2018-04-24T11:09:08.415Z,9
2018-04-24T11:19:08.517Z,9
2018-04-24T11:29:08.612Z,10
2018-04-24T11:39:09.073Z,10
2018-04-24T11:49:08.544Z,11
2018-04-24T11:59:08.585Z,11
2018-04-24T12:09:09.021Z,11
2018-04-24T12:19:09.150Z,12
2018-04-24T12:29:08.637Z,13
2018-04-24T12:39:08.557Z,11
2018-04-24T12:49:08.741Z,11
2018-04-24T12:59:08.945Z,14
2018-04-24T13:09:08.688Z,13
2018-04-24T13:19:08.740Z,12
2018-04-24T13:29:08.694Z,13
2018-04-24T13:39:08.640Z,13
2018-04-24T13:49:08.662Z,13
2018-04-24T13:59:08.647Z,13
2018-04-24T14:09:08.655Z,14
2018-04-24T14:19:09.084Z,15
2018-04-24T14:29:09.613Z,13
2018-04-24T14:39:09.126Z,14
2018-04-24T14:49:09.213Z,15
2018-04-24T14:59:08.673Z,14
2018-04-24T15:09:08.720Z,15
2018-04-24T15:19:08.749Z,15
2018-04-24T15:29:08.733Z,15
2018-04-24T15:39:08.854Z,13
2018-04-24T15:49:08.807Z,14
2018-04-24T15:59:08.987Z,14
2018-04-24T16:09:08.728Z,14
2018-04-24T16:19:08.765Z,13
2018-04-24T16:29:09.436Z,13
2018-04-24T16:39:08.819Z,13
2018-04-24T16:49:08.917Z,12
2018-04-24T16:59:08.898Z,13
2018-04-24T17:09:08.813Z,13
2018-04-24T17:19:09.041Z,14
2018-04-24T17:29:09.268Z,15
2018-04-24T17:39:09.548Z,14
2018-04-24T17:49:10.178Z,14
2018-04-24T17:59:09.078Z,15
2018-04-24T18:09:09.239Z,16
2018-04-24T18:19:08.996Z,17
2018-04-24T18:29:09.246Z,16
2018-04-24T18:39:09.033Z,18
2018-04-24T18:49:09.678Z,16
2018-04-24T18:59:09.112Z,16
2018-04-24T19:09:09.027Z,16
2018-04-24T19:20:19.981Z,17
2018-04-24T19:29:09.039Z,17
2018-04-24T19:39:08.982Z,18
2018-04-24T19:49:09.054Z,19
2018-04-24T19:59:08.995Z,18
2018-04-24T20:09:09.054Z,19
2018-04-24T20:19:09.166Z,19
2018-04-24T20:29:09.171Z,18
2018-04-24T20:39:09.507Z,18
2018-04-24T20:49:09.130Z,19
2018-04-24T20:59:10.002Z,19
2018-04-24T21:09:09.158Z,18
2018-04-24T21:19:09.183Z,18
2018-04-24T21:29:09.402Z,18
2018-04-24T21:39:09.061Z,18
2018-04-24T21:49:09.206Z,19
2018-04-24T21:59:09.371Z,17
2018-04-24T22:09:09.565Z,16
2018-04-24T22:19:09.750Z,15
2018-04-24T22:29:09.134Z,16
2018-04-24T22:39:09.182Z,17
2018-04-24T22:49:09.534Z,16
2018-04-24T22:59:09.202Z,16
2018-04-24T23:09:09.077Z,16
2018-04-24T23:19:09.111Z,15
2018-04-24T23:29:09.331Z,15
2018-04-24T23:39:09.102Z,16
2018-04-24T23:49:09.202Z,16
2018-04-24T23:59:09.181Z,15
